ePrivacy and GPDR Cookie Consent by Cookie Consent
EmailTwitter


Surface observations / Europe / LIRF (16242)

Regions: Quebec | Canada | USA | Europe | France | UK | Elsewhere
Station
Display
Info & Location for LIRF (16242) | Help decoding METAR

Weather Conditions observed on 2024/07/22 at 23:20 UTC (LIRF)

Temperature: 25.0 Celsius.

Dewpoint: 18.0 Celsius.

Relative Humidity: 65%

Humidex 31.

Winds: East-southeast at 6 km/h or 3 knots.

Mean Sea level Pressure: 101.20 kilopascals.

Coded METAR:

LIRF 222320Z 11003KT CAVOK 25/18 Q1012 NOSIG=